Cimbria — V2CC7 — position and weather

sailwx.info

Track history (hours):
 
Tides and Currents Weather Stations Pressure Air Temp Water Temp Dewpoint Dewpoint Depression Visibility Wind Speed Wind Dir Waves Ship Positions

Cimbria

Last reported at 2014-Jul-29 18:32 UTC. Time now 2014-Jul-30 23:15 UTC.
Position N 41°14' E 013°34'.

Length 109 m; draft 6.7 m.

Type: Cargo ship. MMSI: 304981000.

Date/timePositionNaut miles runAvg speedWind from/ knotsBaromVisibWave heightAir tempDewpointWater temp
2014-Jul-29 18:32N 41°14' E 013°34'0 0.0
2014-Jul-29 17:26N 41°14' E 013°34'0 0.0
2014-Jul-29 16:29N 41°14' E 013°34'0 0.0
2014-Jul-29 15:32N 41°14' E 013°34'0 0.0
2014-Jul-29 14:14N 41°14' E 013°34'  
2014-Jul-27 02:23N 39°00' E 009°40'9 9.6
2014-Jul-27 01:29N 38°55' E 009°30'8 9.1
2014-Jul-27 00:33N 38°51' E 009°21'7 6.9
2014-Jul-26 23:33N 38°48' E 009°13'9 8.5
2014-Jul-26 22:33N 38°43' E 009°05'8 8.1
2014-Jul-26 21:33N 38°39' E 008°55'9 8.9
2014-Jul-26 20:33N 38°37' E 008°44'9 9.2
2014-Jul-26 19:32N 38°34' E 008°33'28 9.2
2014-Jul-26 16:32N 38°28' E 007°59'28 9.3
2014-Jul-26 13:33N 38°21' E 007°24'139 9.2
2014-Jul-25 22:29N 37°46' E 004°34'28 9.3
2014-Jul-25 19:30N 37°39' E 003°60'61 9.6
2014-Jul-25 13:08N 37°24' E 002°45'610.3
2014-Jul-25 12:32N 37°22' E 002°37'8610.8
2014-Jul-25 04:31N 37°01' E 000°52'1211.4
2014-Jul-25 03:29N 36°58' E 000°38'3110.4
2014-Jul-25 00:32N 36°50' E 000°01'1210.4
2014-Jul-24 23:26N 36°48' W 000°13'910.2
2014-Jul-24 22:34N 36°45' W 000°24'1110.4
2014-Jul-24 21:32N 36°42' W 000°36'1010.6
2014-Jul-24 20:33N 36°39' W 000°49'1210.9
2014-Jul-24 19:26N 36°36' W 001°04'1110.6
2014-Jul-24 18:24N 36°34' W 001°17'200 8.7
2014-Jul-23 19:32N 35°59' W 005°21'8311.9
2014-Jul-23 12:33N 36°05' W 007°03'1211.4
2014-Jul-23 11:30N 36°09' W 007°18'1111.4
2014-Jul-23 10:33N 36°11' W 007°30'1211.5
2014-Jul-23 09:33N 36°14' W 007°44'1111.1
2014-Jul-23 08:33N 36°18' W 007°57'1111.1
2014-Jul-23 07:33N 36°20' W 008°11'1110.9
2014-Jul-23 06:33N 36°23' W 008°24'1110.9
2014-Jul-23 05:33N 36°26' W 008°37'1111.0
2014-Jul-23 04:32N 36°29' W 008°50'2110.7
2014-Jul-23 02:33N 36°34' W 009°16'1110.7
2014-Jul-23 01:33N 36°42' W 009°26'1110.5
2014-Jul-23 00:32N 36°51' W 009°33'1111.0
2014-Jul-22 23:33N 37°01' W 009°36'1110.8
2014-Jul-22 22:33N 37°12' W 009°39'1111.2
2014-Jul-22 21:33N 37°23' W 009°43'1111.4
2014-Jul-22 20:33N 37°34' W 009°46'1211.5
2014-Jul-22 19:33N 37°45' W 009°49'1111.3
2014-Jul-22 18:33N 37°56' W 009°52'1111.2
2014-Jul-22 17:33N 38°07' W 009°55'1010.2
2014-Jul-22 16:33N 38°17' W 009°58'10 9.9
2014-Jul-22 15:33N 38°26' W 010°01'1111.1
2014-Jul-22 14:33N 38°37' W 010°04'1111.3
2014-Jul-22 13:33N 38°49' W 010°06'1311.9
2014-Jul-22 12:29N 39°01' W 010°06'1111.3
2014-Jul-22 11:31N 39°12' W 010°06'1111.3
2014-Jul-22 10:33N 39°23' W 010°06'1310.3
2014-Jul-22 09:16N 39°36' W 010°06'4 5.6
2014-Jul-22 08:29N 39°41' W 010°05'1311.2
2014-Jul-22 07:21N 39°53' W 010°05'  
Track history (hours):
 
Tides and Currents Weather Stations Pressure Air Temp Water Temp Dewpoint Dewpoint Depression Visibility Wind Speed Wind Dir Waves Ship Positions

Cimbria

Last reported at 2014-Jul-29 18:32 UTC. Time now 2014-Jul-30 23:15 UTC.
Position N 41°14' E 013°34'.

Length 109 m; draft 6.7 m.

Type: Cargo ship. MMSI: 304981000.

Date/timePositionNaut miles runAvg speedWind from/ knotsBaromVisibWave heightAir tempDewpointWater temp
2014-Jul-29 18:32N 41°14' E 013°34'0 0.0
2014-Jul-29 17:26N 41°14' E 013°34'0 0.0
2014-Jul-29 16:29N 41°14' E 013°34'0 0.0
2014-Jul-29 15:32N 41°14' E 013°34'0 0.0
2014-Jul-29 14:14N 41°14' E 013°34'  
2014-Jul-27 02:23N 39°00' E 009°40'9 9.6
2014-Jul-27 01:29N 38°55' E 009°30'8 9.1
2014-Jul-27 00:33N 38°51' E 009°21'7 6.9
2014-Jul-26 23:33N 38°48' E 009°13'9 8.5
2014-Jul-26 22:33N 38°43' E 009°05'8 8.1
2014-Jul-26 21:33N 38°39' E 008°55'9 8.9
2014-Jul-26 20:33N 38°37' E 008°44'9 9.2
2014-Jul-26 19:32N 38°34' E 008°33'28 9.2
2014-Jul-26 16:32N 38°28' E 007°59'28 9.3
2014-Jul-26 13:33N 38°21' E 007°24'139 9.2
2014-Jul-25 22:29N 37°46' E 004°34'28 9.3
2014-Jul-25 19:30N 37°39' E 003°60'61 9.6
2014-Jul-25 13:08N 37°24' E 002°45'610.3
2014-Jul-25 12:32N 37°22' E 002°37'8610.8
2014-Jul-25 04:31N 37°01' E 000°52'1211.4
2014-Jul-25 03:29N 36°58' E 000°38'3110.4
2014-Jul-25 00:32N 36°50' E 000°01'1210.4
2014-Jul-24 23:26N 36°48' W 000°13'910.2
2014-Jul-24 22:34N 36°45' W 000°24'1110.4
2014-Jul-24 21:32N 36°42' W 000°36'1010.6
2014-Jul-24 20:33N 36°39' W 000°49'1210.9
2014-Jul-24 19:26N 36°36' W 001°04'1110.6
2014-Jul-24 18:24N 36°34' W 001°17'200 8.7
2014-Jul-23 19:32N 35°59' W 005°21'8311.9
2014-Jul-23 12:33N 36°05' W 007°03'1211.4
2014-Jul-23 11:30N 36°09' W 007°18'1111.4
2014-Jul-23 10:33N 36°11' W 007°30'1211.5
2014-Jul-23 09:33N 36°14' W 007°44'1111.1
2014-Jul-23 08:33N 36°18' W 007°57'1111.1
2014-Jul-23 07:33N 36°20' W 008°11'1110.9
2014-Jul-23 06:33N 36°23' W 008°24'1110.9
2014-Jul-23 05:33N 36°26' W 008°37'1111.0
2014-Jul-23 04:32N 36°29' W 008°50'2110.7
2014-Jul-23 02:33N 36°34' W 009°16'1110.7
2014-Jul-23 01:33N 36°42' W 009°26'1110.5
2014-Jul-23 00:32N 36°51' W 009°33'1111.0
2014-Jul-22 23:33N 37°01' W 009°36'1110.8
2014-Jul-22 22:33N 37°12' W 009°39'1111.2
2014-Jul-22 21:33N 37°23' W 009°43'1111.4
2014-Jul-22 20:33N 37°34' W 009°46'1211.5
2014-Jul-22 19:33N 37°45' W 009°49'1111.3
2014-Jul-22 18:33N 37°56' W 009°52'1111.2
2014-Jul-22 17:33N 38°07' W 009°55'1010.2
2014-Jul-22 16:33N 38°17' W 009°58'10 9.9
2014-Jul-22 15:33N 38°26' W 010°01'1111.1
2014-Jul-22 14:33N 38°37' W 010°04'1111.3
2014-Jul-22 13:33N 38°49' W 010°06'1311.9
2014-Jul-22 12:29N 39°01' W 010°06'1111.3
2014-Jul-22 11:31N 39°12' W 010°06'1111.3
2014-Jul-22 10:33N 39°23' W 010°06'1310.3
2014-Jul-22 09:16N 39°36' W 010°06'4 5.6
2014-Jul-22 08:29N 39°41' W 010°05'1311.2
2014-Jul-22 07:21N 39°53' W 010°05'  

Dump ship's entire track history